Time;durP1;ratioP1;P1;durP2;ratioP2;P2;SDS_P1;SDS_P2;PMS_P1;PMS_P2;Temp;Humidity;BMP_temperature;BMP_pressure;BME280_temperature;BME280_humidity;BME280_pressure;Samples;Min_cycle;Max_cycle;Signal;HPM_P1;HPM_P2
2023/07/24 00:01:54;;;;;;;11.70;3.88;;;;;;;;;;5084346;28;20503;-74
2023/07/24 00:04:20;;;;;;;5.60;3.67;;;;;;;;;;5077748;28;20020;-75
2023/07/24 00:06:45;;;;;;;9.25;3.50;;;;;;;;;;5095636;28;20028;-74
2023/07/24 00:09:10;;;;;;;14.18;4.10;;;;;;;;;;5089557;28;20032;-75
2023/07/24 00:11:36;;;;;;;9.48;3.55;;;;;;;;;;5095415;28;20035;-74
2023/07/24 00:14:01;;;;;;;4.45;3.05;;;;;;;;;;5082006;28;20024;-75
2023/07/24 00:16:26;;;;;;;12.57;3.50;;;;;;;;;;5057268;28;20025;-73
2023/07/24 00:18:51;;;;;;;8.25;3.28;;;;;;;;;;5081501;28;20114;-75
2023/07/24 00:21:17;;;;;;;7.28;3.40;;;;;;;;;;5095440;28;20016;-74
2023/07/24 00:23:42;;;;;;;7.13;3.28;;;;;;;;;;5095637;28;20461;-75
2023/07/24 00:26:07;;;;;;;7.75;3.13;;;;;;;;;;5077168;28;20028;-74
2023/07/24 00:28:33;;;;;;;8.85;3.47;;;;;;;;;;5077351;28;20055;-74
2023/07/24 00:30:58;;;;;;;11.98;4.40;;;;;;;;;;5077043;28;20523;-75
2023/07/24 00:33:23;;;;;;;16.88;4.00;;;;;;;;;;5076576;28;20016;-74
2023/07/24 00:35:49;;;;;;;7.63;3.75;;;;;;;;;;5095395;28;20024;-74
2023/07/24 00:38:14;;;;;;;7.75;3.25;;;;;;;;;;5060091;28;20073;-75
2023/07/24 00:40:39;;;;;;;7.75;3.50;;;;;;;;;;5060421;28;20031;-74
2023/07/24 00:43:04;;;;;;;9.38;3.72;;;;;;;;;;5076299;28;20035;-74
2023/07/24 00:45:30;;;;;;;11.50;3.30;;;;;;;;;;5075669;28;20529;-75
2023/07/24 00:47:55;;;;;;;8.73;3.20;;;;;;;;;;5076565;28;20036;-74
2023/07/24 00:50:21;;;;;;;6.45;3.28;;;;;;;;;;5082447;28;20078;-74
2023/07/24 00:52:46;;;;;;;7.47;3.13;;;;;;;;;;5056975;28;20020;-74
2023/07/24 00:55:13;;;;;;;11.93;3.85;;;;;;;;;;5056546;28;20103;-74
2023/07/24 00:57:39;;;;;;;11.20;3.38;;;;;;;;;;5066575;28;20046;-74
2023/07/24 01:00:06;;;;;;;15.23;3.70;;;;;;;;;;5076285;28;20062;-75
2023/07/24 01:02:31;;;;;;;11.80;4.22;;;;;;;;;;5094574;28;20059;-74
2023/07/24 01:04:56;;;;;;;17.23;4.78;;;;;;;;;;5076649;28;20059;-75
2023/07/24 01:07:22;;;;;;;8.82;4.05;;;;;;;;;;5076306;28;20020;-73
2023/07/24 01:09:47;;;;;;;13.95;4.47;;;;;;;;;;5075735;28;20074;-75
2023/07/24 01:12:32;;;;;;;14.68;4.53;;;;;;;;;;5092581;28;20027;-75
2023/07/24 01:15:03;;;;;;;11.05;4.15;;;;;;;;;;5076318;28;20442;-74
2023/07/24 01:17:31;;;;;;;15.13;4.57;;;;;;;;;;5073977;28;20054;-74
2023/07/24 01:19:58;;;;;;;16.13;5.00;;;;;;;;;;5056469;28;20473;-73
2023/07/24 01:22:32;;;;;;;16.90;5.47;;;;;;;;;;5055901;28;20028;-74
2023/07/24 01:25:11;;;;;;;13.98;6.05;;;;;;;;;;5056356;28;20025;-74
2023/07/24 01:27:41;;;;;;;17.70;5.15;;;;;;;;;;5056378;28;20063;-74
2023/07/24 01:30:07;;;;;;;16.63;5.28;;;;;;;;;;5089808;28;20504;-74
2023/07/24 01:32:32;;;;;;;22.30;5.60;;;;;;;;;;5092257;28;20039;-74
2023/07/24 01:34:58;;;;;;;15.38;5.25;;;;;;;;;;5075986;28;20028;-75
2023/07/24 01:37:24;;;;;;;16.10;5.65;;;;;;;;;;5058678;28;20470;-74
2023/07/24 01:39:50;;;;;;;18.83;5.95;;;;;;;;;;5076335;28;20473;-75
2023/07/24 01:42:16;;;;;;;18.80;6.55;;;;;;;;;;5058413;28;20066;-74
2023/07/24 01:44:41;;;;;;;19.42;5.55;;;;;;;;;;5055164;28;20028;-75
2023/07/24 01:47:06;;;;;;;15.55;5.82;;;;;;;;;;5073545;28;20381;-74
2023/07/24 01:49:31;;;;;;;15.13;5.88;;;;;;;;;;5083246;28;20028;-74
2023/07/24 01:51:57;;;;;;;20.10;6.38;;;;;;;;;;5075515;28;20058;-75
2023/07/24 01:54:23;;;;;;;16.95;6.43;;;;;;;;;;5074735;28;20043;-74
2023/07/24 01:56:48;;;;;;;16.27;6.30;;;;;;;;;;5075755;28;20024;-74
2023/07/24 01:59:13;;;;;;;24.10;6.75;;;;;;;;;;5093282;28;20035;-74
2023/07/24 02:01:38;;;;;;;21.90;7.78;;;;;;;;;;5093726;28;20106;-75
2023/07/24 02:04:04;;;;;;;14.30;5.72;;;;;;;;;;5094328;28;20028;-75
2023/07/24 02:06:29;;;;;;;13.43;4.90;;;;;;;;;;5075300;28;20016;-75
2023/07/24 02:08:54;;;;;;;15.10;5.03;;;;;;;;;;5093513;28;20092;-75
2023/07/24 02:11:20;;;;;;;9.70;4.10;;;;;;;;;;5075048;28;20027;-74
2023/07/24 02:13:45;;;;;;;7.55;3.90;;;;;;;;;;5073623;28;20507;-74
2023/07/24 02:16:12;;;;;;;8.27;3.58;;;;;;;;;;5075426;28;20065;-74
2023/07/24 02:18:38;;;;;;;8.95;3.40;;;;;;;;;;5064512;28;20020;-75
2023/07/24 02:21:04;;;;;;;10.50;2.88;;;;;;;;;;5073359;28;20490;-75
2023/07/24 02:23:29;;;;;;;10.45;2.60;;;;;;;;;;5072560;28;20115;-74
2023/07/24 02:25:54;;;;;;;8.70;2.15;;;;;;;;;;5075145;28;20123;-74
2023/07/24 02:28:19;;;;;;;6.10;2.45;;;;;;;;;;5075297;28;20024;-74
2023/07/24 02:30:46;;;;;;;12.10;2.72;;;;;;;;;;5093234;28;20040;-74
2023/07/24 02:33:12;;;;;;;8.43;2.70;;;;;;;;;;5075177;28;20106;-74
2023/07/24 02:35:41;;;;;;;6.53;2.30;;;;;;;;;;5092461;28;20088;-74
2023/07/24 02:38:06;;;;;;;5.85;1.80;;;;;;;;;;5075114;28;20065;-74
2023/07/24 02:40:31;;;;;;;7.78;1.80;;;;;;;;;;5074787;28;20436;-74
2023/07/24 02:42:57;;;;;;;11.02;2.20;;;;;;;;;;5092573;28;20053;-73
2023/07/24 02:45:22;;;;;;;7.53;2.15;;;;;;;;;;5092841;28;20028;-74
2023/07/24 02:47:47;;;;;;;1.77;1.58;;;;;;;;;;5093165;28;20534;-74
2023/07/24 02:50:13;;;;;;;5.20;1.70;;;;;;;;;;5092634;28;20023;-75
2023/07/24 02:52:38;;;;;;;5.47;2.65;;;;;;;;;;5074942;28;20047;-74
2023/07/24 02:55:03;;;;;;;4.57;1.80;;;;;;;;;;5092801;28;20538;-74
2023/07/24 02:57:29;;;;;;;10.98;2.22;;;;;;;;;;5092186;28;20024;-74
2023/07/24 02:59:54;;;;;;;6.78;2.00;;;;;;;;;;5093009;28;20030;-74
2023/07/24 03:02:19;;;;;;;5.68;1.60;;;;;;;;;;5074601;28;20377;-74
2023/07/24 03:04:45;;;;;;;5.53;2.03;;;;;;;;;;5093636;28;20078;-74
2023/07/24 03:07:10;;;;;;;4.78;1.67;;;;;;;;;;5096177;28;20358;-75
2023/07/24 03:09:35;;;;;;;6.05;1.90;;;;;;;;;;5078895;28;20024;-75
2023/07/24 03:12:00;;;;;;;5.13;1.42;;;;;;;;;;5078542;28;20043;-75
2023/07/24 03:14:26;;;;;;;3.15;1.58;;;;;;;;;;5072951;28;20032;-75
2023/07/24 03:16:51;;;;;;;3.75;1.50;;;;;;;;;;5075957;28;20030;-75
2023/07/24 03:19:17;;;;;;;1.80;0.98;;;;;;;;;;5078516;28;20016;-74
2023/07/24 03:21:43;;;;;;;5.07;1.80;;;;;;;;;;5097149;28;20073;-75
2023/07/24 03:24:08;;;;;;;5.25;1.50;;;;;;;;;;5090038;28;20470;-74
2023/07/24 03:26:33;;;;;;;3.08;1.67;;;;;;;;;;5075943;28;20562;-75
2023/07/24 03:28:59;;;;;;;4.32;1.95;;;;;;;;;;5058197;28;20529;-74
2023/07/24 03:31:25;;;;;;;5.45;1.98;;;;;;;;;;5072257;28;20037;-75
2023/07/24 03:33:50;;;;;;;8.13;2.20;;;;;;;;;;5075897;28;20406;-74
2023/07/24 03:36:15;;;;;;;4.40;1.65;;;;;;;;;;5083086;28;20028;-75
2023/07/24 03:38:40;;;;;;;4.68;1.85;;;;;;;;;;5070766;28;20021;-75
2023/07/24 03:41:06;;;;;;;5.47;1.73;;;;;;;;;;5096269;28;20026;-74
2023/07/24 03:43:31;;;;;;;5.78;1.83;;;;;;;;;;5096209;28;20505;-75
2023/07/24 03:45:56;;;;;;;3.85;1.77;;;;;;;;;;5095557;28;20031;-75
2023/07/24 03:48:21;;;;;;;5.47;2.05;;;;;;;;;;5110098;22;20156;-79
2023/07/24 03:50:49;;;;;;;4.03;1.92;;;;;;;;;;5081073;28;20496;-79
2023/07/24 03:53:14;;;;;;;6.15;2.05;;;;;;;;;;5080168;28;20031;-79
2023/07/24 03:55:40;;;;;;;8.85;2.22;;;;;;;;;;5099061;28;20024;-78
2023/07/24 03:58:05;;;;;;;5.35;2.17;;;;;;;;;;5099700;28;20052;-78
2023/07/24 04:00:30;;;;;;;3.95;1.90;;;;;;;;;;5099872;28;20019;-78
2023/07/24 04:02:56;;;;;;;3.35;1.90;;;;;;;;;;5081424;28;20512;-78
2023/07/24 04:05:21;;;;;;;5.97;2.25;;;;;;;;;;5081666;28;20045;-78
2023/07/24 04:07:46;;;;;;;3.30;1.98;;;;;;;;;;5080587;28;20028;-78
2023/07/24 04:10:11;;;;;;;6.63;2.33;;;;;;;;;;5080891;28;20056;-79
2023/07/24 04:12:37;;;;;;;4.72;1.75;;;;;;;;;;5081847;28;20473;-78
2023/07/24 04:15:03;;;;;;;8.18;2.10;;;;;;;;;;5080980;28;20024;-79
2023/07/24 04:17:28;;;;;;;3.53;2.13;;;;;;;;;;5079344;28;20034;-79
2023/07/24 04:19:53;;;;;;;5.40;2.33;;;;;;;;;;5099920;28;20024;-79
2023/07/24 04:22:19;;;;;;;5.28;2.13;;;;;;;;;;5064895;28;20492;-79
2023/07/24 04:24:44;;;;;;;5.55;2.33;;;;;;;;;;5081302;28;20031;-79
2023/07/24 04:27:09;;;;;;;6.97;2.00;;;;;;;;;;5063627;28;20109;-78
2023/07/24 04:29:34;;;;;;;2.72;1.92;;;;;;;;;;5081229;28;20019;-79
2023/07/24 04:32:00;;;;;;;4.88;2.20;;;;;;;;;;5064053;28;20032;-79
2023/07/24 04:34:25;;;;;;;6.38;2.22;;;;;;;;;;5080204;28;20024;-79
2023/07/24 04:36:50;;;;;;;7.45;2.10;;;;;;;;;;5079987;28;20031;-79
2023/07/24 04:39:15;;;;;;;5.40;1.80;;;;;;;;;;5080261;28;20455;-79
2023/07/24 04:41:41;;;;;;;9.02;2.60;;;;;;;;;;5080196;28;20107;-78
2023/07/24 04:44:06;;;;;;;5.80;1.98;;;;;;;;;;5080634;28;20028;-79
2023/07/24 04:46:31;;;;;;;6.45;2.30;;;;;;;;;;5080995;28;20461;-79
2023/07/24 04:48:57;;;;;;;3.00;1.83;;;;;;;;;;5080397;28;20028;-79
2023/07/24 04:51:22;;;;;;;3.58;1.85;;;;;;;;;;5082253;28;20031;-79
2023/07/24 04:53:47;;;;;;;5.25;2.00;;;;;;;;;;5081176;28;20051;-79
2023/07/24 04:56:12;;;;;;;4.28;2.10;;;;;;;;;;5081388;28;20082;-79
2023/07/24 04:58:38;;;;;;;6.05;1.98;;;;;;;;;;5082361;28;20024;-79
2023/07/24 05:01:04;;;;;;;5.18;2.00;;;;;;;;;;5082168;28;20012;-79
2023/07/24 05:03:29;;;;;;;7.07;2.22;;;;;;;;;;5080658;28;20469;-79
2023/07/24 05:05:55;;;;;;;7.72;2.10;;;;;;;;;;5081739;28;20397;-79
2023/07/24 05:08:21;;;;;;;6.15;2.08;;;;;;;;;;5098764;28;20031;-79
2023/07/24 05:10:46;;;;;;;10.43;2.13;;;;;;;;;;5081644;28;20020;-79
2023/07/24 05:13:11;;;;;;;8.15;2.20;;;;;;;;;;5080567;28;20031;-79
2023/07/24 05:15:37;;;;;;;5.57;2.17;;;;;;;;;;5100434;28;20408;-79
2023/07/24 05:18:02;;;;;;;6.63;2.22;;;;;;;;;;5081823;28;20073;-79
2023/07/24 05:20:27;;;;;;;3.20;1.75;;;;;;;;;;5099212;28;20099;-79
2023/07/24 05:22:52;;;;;;;6.80;2.50;;;;;;;;;;5098865;28;20015;-79
2023/07/24 05:25:18;;;;;;;5.95;2.17;;;;;;;;;;5098342;28;20393;-79
2023/07/24 05:27:43;;;;;;;6.45;2.50;;;;;;;;;;5080900;28;20081;-79
2023/07/24 05:30:08;;;;;;;5.75;2.20;;;;;;;;;;5080880;28;20032;-79
2023/07/24 05:32:34;;;;;;;6.45;2.28;;;;;;;;;;5079926;28;20024;-79
2023/07/24 05:35:00;;;;;;;4.57;1.83;;;;;;;;;;5081860;28;20134;-79
2023/07/24 05:37:25;;;;;;;6.20;2.05;;;;;;;;;;5081436;28;20095;-79
2023/07/24 05:39:51;;;;;;;6.22;3.03;;;;;;;;;;5080980;28;20473;-79
2023/07/24 05:42:16;;;;;;;5.75;2.13;;;;;;;;;;5099925;28;20020;-79
2023/07/24 05:44:41;;;;;;;5.03;2.40;;;;;;;;;;5099139;28;20511;-79
2023/07/24 05:47:07;;;;;;;5.05;2.00;;;;;;;;;;5098846;28;20473;-79
2023/07/24 05:49:32;;;;;;;4.82;1.92;;;;;;;;;;5099955;28;20091;-79
2023/07/24 05:51:57;;;;;;;5.07;1.98;;;;;;;;;;5100215;28;20389;-79
2023/07/24 05:54:23;;;;;;;6.40;1.90;;;;;;;;;;5100343;28;20469;-79
2023/07/24 05:56:48;;;;;;;4.18;2.20;;;;;;;;;;5097960;28;20034;-79
2023/07/24 05:59:14;;;;;;;7.68;2.25;;;;;;;;;;5078223;28;20477;-79
2023/07/24 06:01:39;;;;;;;3.80;2.22;;;;;;;;;;5078987;28;20214;-79
2023/07/24 06:04:07;;;;;;;2.67;1.88;;;;;;;;;;5061443;28;20028;-79
2023/07/24 06:06:32;;;;;;;5.95;2.15;;;;;;;;;;5063423;28;20032;-79
2023/07/24 06:08:57;;;;;;;6.20;2.33;;;;;;;;;;5077157;28;20073;-79
2023/07/24 06:11:23;;;;;;;4.45;2.05;;;;;;;;;;5061489;28;20117;-80
2023/07/24 06:13:48;;;;;;;3.72;1.83;;;;;;;;;;5079806;28;20024;-80
2023/07/24 06:16:13;;;;;;;6.30;2.00;;;;;;;;;;5079867;28;20024;-79
2023/07/24 06:18:39;;;;;;;5.95;2.42;;;;;;;;;;5079829;28;20059;-80
2023/07/24 06:21:04;;;;;;;6.53;2.33;;;;;;;;;;5097040;28;20023;-80
2023/07/24 06:23:29;;;;;;;3.85;2.10;;;;;;;;;;5080207;28;20111;-79
2023/07/24 06:25:55;;;;;;;6.05;2.35;;;;;;;;;;5066204;28;20023;-79
2023/07/24 06:28:20;;;;;;;4.07;2.05;;;;;;;;;;5085951;28;20027;-79
2023/07/24 06:30:46;;;;;;;4.60;1.90;;;;;;;;;;5102725;28;20027;-79
2023/07/24 06:33:11;;;;;;;2.42;1.55;;;;;;;;;;5098935;28;20062;-79
2023/07/24 06:35:36;;;;;;;4.78;2.55;;;;;;;;;;5078714;28;20024;-79
2023/07/24 06:38:02;;;;;;;7.15;2.08;;;;;;;;;;5077906;28;20057;-80
2023/07/24 06:40:27;;;;;;;6.00;2.42;;;;;;;;;;5078053;28;20031;-79
2023/07/24 06:42:52;;;;;;;8.40;2.05;;;;;;;;;;5081324;28;20020;-79
2023/07/24 06:45:18;;;;;;;4.07;1.92;;;;;;;;;;5079736;28;20020;-79
2023/07/24 06:47:43;;;;;;;5.85;2.30;;;;;;;;;;5080703;28;20036;-79
2023/07/24 06:50:09;;;;;;;6.80;2.55;;;;;;;;;;5081102;28;20028;-79
2023/07/24 06:52:34;;;;;;;3.90;2.22;;;;;;;;;;5091767;28;20554;-79
2023/07/24 06:54:59;;;;;;;2.28;1.52;;;;;;;;;;5076576;28;20052;-79
2023/07/24 06:57:25;;;;;;;4.95;2.13;;;;;;;;;;5080289;28;20115;-79
2023/07/24 06:59:50;;;;;;;6.53;1.90;;;;;;;;;;5079875;28;20049;-80
2023/07/24 07:02:15;;;;;;;7.68;1.80;;;;;;;;;;5076890;28;20047;-78
2023/07/24 07:04:41;;;;;;;7.82;1.85;;;;;;;;;;5076498;28;20024;-80
2023/07/24 07:07:06;;;;;;;4.93;2.00;;;;;;;;;;5077117;28;20024;-80
2023/07/24 07:09:32;;;;;;;6.90;1.90;;;;;;;;;;5056122;28;20098;-80
2023/07/24 07:11:57;;;;;;;3.85;1.85;;;;;;;;;;5076913;28;20465;-81
2023/07/24 07:14:22;;;;;;;9.90;2.80;;;;;;;;;;5094294;28;20016;-81
2023/07/24 07:16:48;;;;;;;6.53;2.15;;;;;;;;;;5060648;28;20031;-80
2023/07/24 07:19:13;;;;;;;5.45;1.80;;;;;;;;;;5077810;28;20024;-80
2023/07/24 07:21:38;;;;;;;4.97;2.17;;;;;;;;;;5060960;28;20035;-80
2023/07/24 07:24:04;;;;;;;3.75;1.75;;;;;;;;;;5095989;28;20114;-80
2023/07/24 07:26:29;;;;;;;4.07;1.45;;;;;;;;;;5073890;28;20072;-80
2023/07/24 07:28:55;;;;;;;3.85;1.55;;;;;;;;;;5040519;28;20020;-80
2023/07/24 07:31:21;;;;;;;4.53;2.08;;;;;;;;;;5056617;28;20111;-79
2023/07/24 07:33:46;;;;;;;2.65;1.48;;;;;;;;;;5051055;28;20024;-80
2023/07/24 07:36:12;;;;;;;3.72;1.58;;;;;;;;;;5075999;28;20032;-78
2023/07/24 07:38:39;;;;;;;3.38;1.63;;;;;;;;;;5077226;28;20043;-76
2023/07/24 07:41:05;;;;;;;3.50;1.83;;;;;;;;;;5059489;28;20077;-76
2023/07/24 07:43:30;;;;;;;5.20;1.92;;;;;;;;;;5057646;28;20023;-77
2023/07/24 07:45:56;;;;;;;4.30;1.63;;;;;;;;;;5092292;28;20378;-76
2023/07/24 07:48:22;;;;;;;4.68;1.42;;;;;;;;;;5073989;28;20097;-76
2023/07/24 07:50:50;;;;;;;4.07;1.67;;;;;;;;;;5077025;28;20084;-77
2023/07/24 07:53:16;;;;;;;5.40;1.88;;;;;;;;;;5079439;28;20019;-77
2023/07/24 07:55:41;;;;;;;7.93;2.00;;;;;;;;;;5059520;28;20435;-77
2023/07/24 07:58:06;;;;;;;5.30;1.95;;;;;;;;;;5057565;28;20024;-75
2023/07/24 08:00:32;;;;;;;4.22;1.67;;;;;;;;;;5057669;28;20046;-76
2023/07/24 08:02:57;;;;;;;3.22;1.83;;;;;;;;;;5041268;28;20031;-76
2023/07/24 08:05:22;;;;;;;3.25;1.65;;;;;;;;;;5062228;28;20024;-77
2023/07/24 08:07:48;;;;;;;2.25;1.45;;;;;;;;;;5042470;28;20021;-77
2023/07/24 08:10:15;;;;;;;4.13;1.85;;;;;;;;;;5077682;28;20066;-77
2023/07/24 08:12:40;;;;;;;4.38;1.77;;;;;;;;;;5075448;28;20028;-76
2023/07/24 08:15:06;;;;;;;6.68;2.10;;;;;;;;;;5057546;28;20035;-75
2023/07/24 08:17:31;;;;;;;3.33;1.63;;;;;;;;;;5075674;28;20170;-76
2023/07/24 08:19:56;;;;;;;5.60;1.75;;;;;;;;;;5057211;28;20028;-76
2023/07/24 08:22:22;;;;;;;6.25;2.50;;;;;;;;;;5087603;28;20438;-79
2023/07/24 08:24:50;;;;;;;3.58;1.73;;;;;;;;;;5099609;28;20030;-77
2023/07/24 08:27:15;;;;;;;6.13;2.13;;;;;;;;;;5099451;28;20024;-77
2023/07/24 08:29:40;;;;;;;6.15;2.00;;;;;;;;;;5080970;28;20089;-77
2023/07/24 08:32:06;;;;;;;6.07;2.35;;;;;;;;;;5077279;28;20036;-77
2023/07/24 08:34:31;;;;;;;4.25;1.63;;;;;;;;;;5078668;28;20020;-77
2023/07/24 08:36:57;;;;;;;5.07;1.73;;;;;;;;;;5061436;28;20027;-77
2023/07/24 08:39:22;;;;;;;4.15;2.05;;;;;;;;;;5060963;28;20119;-77
2023/07/24 08:41:47;;;;;;;4.00;1.98;;;;;;;;;;5059759;28;20017;-77
2023/07/24 08:44:13;;;;;;;2.97;1.65;;;;;;;;;;5078368;28;20032;-77
2023/07/24 08:46:41;;;;;;;3.92;2.00;;;;;;;;;;5056919;28;20399;-76
2023/07/24 08:49:15;;;;;;;4.45;2.65;;;;;;;;;;5057628;28;20024;-76
2023/07/24 08:51:41;;;;;;;3.80;1.65;;;;;;;;;;5058343;28;20025;-76
2023/07/24 08:54:07;;;;;;;3.67;2.15;;;;;;;;;;5061977;28;20043;-77
2023/07/24 08:56:33;;;;;;;3.70;1.70;;;;;;;;;;5096449;28;20024;-78
2023/07/24 08:58:58;;;;;;;4.90;2.20;;;;;;;;;;5078428;28;20024;-78
2023/07/24 09:01:24;;;;;;;5.88;2.38;;;;;;;;;;5091336;28;20021;-76
2023/07/24 09:03:49;;;;;;;7.25;2.53;;;;;;;;;;5076568;28;20074;-77
2023/07/24 09:06:15;;;;;;;10.05;2.50;;;;;;;;;;5076252;28;20032;-77
2023/07/24 09:08:41;;;;;;;3.72;2.03;;;;;;;;;;5076132;28;20032;-77
2023/07/24 09:11:09;;;;;;;7.30;2.20;;;;;;;;;;5074707;28;20016;-76
2023/07/24 09:13:38;;;;;;;8.30;2.50;;;;;;;;;;5057129;28;20478;-78
2023/07/24 09:16:04;;;;;;;6.13;2.38;;;;;;;;;;5076810;28;20031;-77
2023/07/24 09:18:40;;;;;;;6.32;2.50;;;;;;;;;;5078032;28;20020;-77
2023/07/24 09:21:05;;;;;;;4.97;2.42;;;;;;;;;;5096333;28;20016;-77
2023/07/24 09:23:30;;;;;;;6.63;3.33;;;;;;;;;;5057012;28;20036;-77
2023/07/24 09:25:56;;;;;;;8.63;2.25;;;;;;;;;;5075592;28;20035;-77
2023/07/24 09:28:22;;;;;;;6.93;2.60;;;;;;;;;;5057130;28;20020;-77
2023/07/24 09:30:55;;;;;;;6.45;2.28;;;;;;;;;;5072538;28;20116;-77
2023/07/24 09:33:23;;;;;;;4.88;2.13;;;;;;;;;;5057634;28;20032;-77
2023/07/24 09:35:59;;;;;;;5.50;2.10;;;;;;;;;;5074964;28;20111;-77
2023/07/24 09:38:24;;;;;;;6.32;2.15;;;;;;;;;;5075649;28;20025;-77
2023/07/24 09:40:52;;;;;;;8.85;2.20;;;;;;;;;;5058989;28;20025;-77
2023/07/24 09:43:20;;;;;;;3.95;1.60;;;;;;;;;;5058661;28;20413;-78
2023/07/24 09:45:46;;;;;;;4.97;2.38;;;;;;;;;;5072688;28;20497;-77
2023/07/24 09:48:14;;;;;;;6.80;2.33;;;;;;;;;;5055575;28;20563;-76
2023/07/24 09:50:43;;;;;;;5.45;2.40;;;;;;;;;;5073360;28;20033;-77
2023/07/24 09:53:20;;;;;;;6.75;2.00;;;;;;;;;;5057248;28;20016;-78
2023/07/24 09:56:06;;;;;;;7.32;2.30;;;;;;;;;;5074909;28;20397;-77
2023/07/24 09:58:34;;;;;;;4.85;2.20;;;;;;;;;;5056229;28;20027;-77
2023/07/24 10:01:01;;;;;;;3.30;2.00;;;;;;;;;;5055838;28;20466;-76
2023/07/24 10:03:27;;;;;;;4.15;1.92;;;;;;;;;;5057557;28;20104;-77
2023/07/24 10:05:53;;;;;;;6.55;2.58;;;;;;;;;;5074169;28;20070;-77
2023/07/24 10:08:19;;;;;;;7.05;1.90;;;;;;;;;;5057884;28;20024;-77
2023/07/24 10:10:45;;;;;;;6.68;2.42;;;;;;;;;;5073767;28;20040;-77
2023/07/24 10:13:13;;;;;;;5.57;2.30;;;;;;;;;;5056355;28;20028;-76
2023/07/24 10:15:38;;;;;;;5.20;2.30;;;;;;;;;;5072828;28;20032;-78
2023/07/24 10:18:06;;;;;;;4.20;2.08;;;;;;;;;;5055953;28;20024;-76
2023/07/24 10:20:35;;;;;;;5.13;2.30;;;;;;;;;;5058223;28;20020;-77
2023/07/24 10:23:02;;;;;;;7.03;2.15;;;;;;;;;;5058565;28;20021;-77
2023/07/24 10:25:32;;;;;;;4.93;2.03;;;;;;;;;;5042218;28;20374;-77
2023/07/24 10:28:07;;;;;;;6.00;2.58;;;;;;;;;;5076618;28;20473;-77
2023/07/24 10:30:35;;;;;;;6.03;2.22;;;;;;;;;;5059985;28;20031;-78
2023/07/24 10:33:14;;;;;;;4.50;2.70;;;;;;;;;;5059694;28;20433;-77
2023/07/24 10:35:44;;;;;;;6.47;2.05;;;;;;;;;;5059018;28;20085;-77
2023/07/24 10:38:10;;;;;;;4.15;1.80;;;;;;;;;;5057219;28;20028;-75
2023/07/24 10:40:36;;;;;;;3.47;2.00;;;;;;;;;;5054736;28;20370;-76
2023/07/24 10:43:05;;;;;;;7.45;1.85;;;;;;;;;;5055167;28;20026;-76
2023/07/24 10:45:50;;;;;;;7.60;2.40;;;;;;;;;;5055583;28;20082;-76
2023/07/24 10:48:17;;;;;;;7.03;1.90;;;;;;;;;;5072295;28;20028;-76
2023/07/24 10:50:44;;;;;;;6.57;2.08;;;;;;;;;;5071900;28;20035;-76
2023/07/24 10:53:13;;;;;;;5.47;2.08;;;;;;;;;;5055371;28;20431;-76
2023/07/24 10:55:38;;;;;;;5.60;2.00;;;;;;;;;;5037717;28;20024;-76
2023/07/24 10:58:03;;;;;;;9.00;2.72;;;;;;;;;;5072827;28;20063;-76
2023/07/24 11:00:28;;;;;;;7.20;2.65;;;;;;;;;;5054913;28;20024;-76
2023/07/24 11:02:54;;;;;;;4.05;1.80;;;;;;;;;;5072840;28;20040;-76
2023/07/24 11:05:21;;;;;;;7.25;1.92;;;;;;;;;;5071700;28;20021;-76
2023/07/24 11:07:47;;;;;;;4.20;1.95;;;;;;;;;;5054391;28;20066;-75
2023/07/24 11:10:19;;;;;;;3.13;1.73;;;;;;;;;;5038121;28;20024;-76
2023/07/24 11:12:45;;;;;;;3.75;2.00;;;;;;;;;;5073041;28;20085;-76
2023/07/24 11:15:11;;;;;;;3.50;1.77;;;;;;;;;;5072813;28;20111;-75
2023/07/24 11:17:40;;;;;;;7.32;2.28;;;;;;;;;;5054308;28;20121;-76
2023/07/24 11:20:16;;;;;;;3.60;1.63;;;;;;;;;;5055030;28;20161;-76
2023/07/24 11:22:43;;;;;;;6.75;2.08;;;;;;;;;;5063204;28;20481;-76
2023/07/24 11:25:09;;;;;;;4.72;1.73;;;;;;;;;;5074759;28;20498;-76
2023/07/24 11:27:53;;;;;;;4.65;1.95;;;;;;;;;;5074445;28;20599;-76
2023/07/24 11:30:20;;;;;;;4.18;1.58;;;;;;;;;;5075394;28;20047;-76
2023/07/24 11:32:46;;;;;;;5.95;1.77;;;;;;;;;;5058572;28;20478;-76
2023/07/24 11:35:11;;;;;;;3.30;1.75;;;;;;;;;;5076229;28;20099;-76
2023/07/24 11:37:36;;;;;;;3.15;1.73;;;;;;;;;;5075853;28;20024;-76
2023/07/24 11:40:09;;;;;;;3.53;1.90;;;;;;;;;;5058494;28;20114;-76
2023/07/24 11:42:39;;;;;;;5.32;1.70;;;;;;;;;;5076272;28;20097;-76
2023/07/24 11:45:05;;;;;;;7.05;2.40;;;;;;;;;;5057644;28;20101;-76
2023/07/24 11:47:31;;;;;;;3.47;1.95;;;;;;;;;;5075913;28;20067;-76
2023/07/24 11:50:00;;;;;;;2.67;1.52;;;;;;;;;;5075904;28;20458;-76
2023/07/24 11:52:26;;;;;;;3.25;1.98;;;;;;;;;;5058048;28;20031;-76
2023/07/24 11:55:00;;;;;;;4.18;1.90;;;;;;;;;;5057636;28;20024;-76
2023/07/24 11:57:27;;;;;;;4.60;2.03;;;;;;;;;;5058298;28;20024;-76
2023/07/24 11:59:53;;;;;;;5.95;1.80;;;;;;;;;;5075846;28;20029;-76
2023/07/24 12:02:18;;;;;;;5.18;2.33;;;;;;;;;;5075580;28;20126;-76
2023/07/24 12:04:44;;;;;;;2.95;1.77;;;;;;;;;;5057839;28;20505;-76
2023/07/24 12:07:09;;;;;;;3.85;2.00;;;;;;;;;;5091285;28;20366;-75
2023/07/24 12:09:34;;;;;;;3.50;1.85;;;;;;;;;;5077277;28;20031;-76
2023/07/24 12:12:03;;;;;;;6.15;2.30;;;;;;;;;;5076470;28;20115;-76
2023/07/24 12:14:28;;;;;;;5.30;2.05;;;;;;;;;;5075390;28;20023;-76
2023/07/24 12:17:06;;;;;;;5.00;2.25;;;;;;;;;;5071648;28;20082;-76
2023/07/24 12:19:31;;;;;;;4.22;1.90;;;;;;;;;;5059241;28;20397;-76
2023/07/24 12:21:56;;;;;;;3.33;1.63;;;;;;;;;;5058487;28;20017;-76
2023/07/24 12:24:21;;;;;;;7.10;1.83;;;;;;;;;;5041831;28;20028;-75
2023/07/24 12:26:47;;;;;;;6.68;2.03;;;;;;;;;;5075747;28;20020;-75
2023/07/24 12:29:12;;;;;;;5.50;1.88;;;;;;;;;;5094654;28;20023;-76
2023/07/24 12:31:38;;;;;;;3.03;1.88;;;;;;;;;;5076995;28;20515;-77
2023/07/24 12:34:03;;;;;;;3.72;2.03;;;;;;;;;;5095013;28;20114;-77
2023/07/24 12:36:28;;;;;;;3.38;1.70;;;;;;;;;;5077230;28;20020;-76
2023/07/24 12:38:54;;;;;;;5.75;1.88;;;;;;;;;;5094184;28;20049;-76
2023/07/24 12:41:19;;;;;;;7.05;1.70;;;;;;;;;;5077272;28;20020;-76
2023/07/24 12:43:44;;;;;;;4.28;1.77;;;;;;;;;;5076511;28;20027;-76
2023/07/24 12:46:10;;;;;;;3.88;1.75;;;;;;;;;;5073553;28;20035;-75
2023/07/24 12:48:35;;;;;;;4.63;2.38;;;;;;;;;;5056383;28;20042;-76
2023/07/24 12:51:01;;;;;;;7.15;2.13;;;;;;;;;;5059103;28;20383;-76
2023/07/24 12:53:26;;;;;;;3.83;1.80;;;;;;;;;;5089143;28;20020;-75
2023/07/24 12:55:51;;;;;;;5.10;2.33;;;;;;;;;;5076668;28;20027;-76
2023/07/24 12:58:17;;;;;;;4.57;1.77;;;;;;;;;;5076287;28;20035;-76
2023/07/24 13:00:42;;;;;;;4.97;1.80;;;;;;;;;;5076619;28;20024;-76
2023/07/24 13:03:07;;;;;;;3.22;1.75;;;;;;;;;;5094776;28;20111;-76
2023/07/24 13:05:32;;;;;;;5.00;1.83;;;;;;;;;;5076812;28;20101;-76
2023/07/24 13:07:58;;;;;;;3.95;1.90;;;;;;;;;;5093808;28;20027;-76
2023/07/24 13:10:23;;;;;;;6.53;1.98;;;;;;;;;;5095159;28;20392;-76
2023/07/24 13:12:48;;;;;;;2.95;1.75;;;;;;;;;;5094263;28;20109;-76
2023/07/24 13:15:14;;;;;;;3.85;1.50;;;;;;;;;;5079628;28;20020;-75
2023/07/24 13:17:39;;;;;;;4.18;1.60;;;;;;;;;;5074242;28;20059;-76
2023/07/24 13:20:05;;;;;;;3.20;1.70;;;;;;;;;;5073516;28;20410;-75
2023/07/24 13:22:30;;;;;;;3.83;1.85;;;;;;;;;;5058075;28;20029;-76
2023/07/24 13:24:56;;;;;;;4.55;2.08;;;;;;;;;;5076093;28;20035;-76
2023/07/24 13:27:21;;;;;;;5.43;2.45;;;;;;;;;;5076230;28;20020;-75
2023/07/24 13:29:46;;;;;;;3.95;1.80;;;;;;;;;;5094332;28;20118;-76
2023/07/24 13:32:11;;;;;;;3.38;1.73;;;;;;;;;;5076136;28;20028;-76
2023/07/24 13:34:37;;;;;;;2.47;1.60;;;;;;;;;;5075454;28;20016;-76
2023/07/24 13:37:02;;;;;;;4.18;1.70;;;;;;;;;;5094286;28;20030;-76
2023/07/24 13:39:28;;;;;;;5.25;1.90;;;;;;;;;;5075673;28;20024;-77
2023/07/24 13:41:53;;;;;;;3.08;1.65;;;;;;;;;;5093685;28;20091;-76
2023/07/24 13:44:19;;;;;;;4.97;2.10;;;;;;;;;;5075811;28;20500;-77
2023/07/24 13:46:44;;;;;;;5.15;2.15;;;;;;;;;;5093921;28;20035;-76
2023/07/24 13:49:10;;;;;;;5.03;1.70;;;;;;;;;;5075577;28;20032;-76
2023/07/24 13:51:35;;;;;;;5.28;1.83;;;;;;;;;;5093843;28;20107;-76
2023/07/24 13:54:00;;;;;;;2.40;1.70;;;;;;;;;;5093811;28;20027;-77
2023/07/24 13:56:27;;;;;;;5.15;1.70;;;;;;;;;;5075268;28;20396;-76
2023/07/24 13:58:52;;;;;;;7.00;2.10;;;;;;;;;;5093725;28;20481;-77
2023/07/24 14:01:18;;;;;;;4.50;2.20;;;;;;;;;;5075491;28;20077;-76
2023/07/24 14:03:43;;;;;;;9.82;2.42;;;;;;;;;;5093774;28;20030;-75
2023/07/24 14:06:08;;;;;;;3.10;1.65;;;;;;;;;;5093401;28;20096;-76
2023/07/24 14:08:34;;;;;;;4.32;2.20;;;;;;;;;;5075167;28;20028;-76
2023/07/24 14:10:59;;;;;;;7.55;1.80;;;;;;;;;;5092912;28;20024;-76
2023/07/24 14:13:24;;;;;;;6.53;2.00;;;;;;;;;;5075377;28;20027;-76
2023/07/24 14:15:49;;;;;;;7.28;2.20;;;;;;;;;;5075603;28;20052;-76
2023/07/24 14:18:15;;;;;;;6.00;1.85;;;;;;;;;;5074511;28;20028;-75
2023/07/24 14:20:40;;;;;;;3.10;1.63;;;;;;;;;;5091998;28;20085;-75
2023/07/24 14:23:07;;;;;;;4.78;2.40;;;;;;;;;;5075239;28;20107;-75
2023/07/24 14:25:32;;;;;;;5.40;2.47;;;;;;;;;;5074718;28;20059;-75
2023/07/24 14:27:57;;;;;;;8.75;1.90;;;;;;;;;;5065026;28;20032;-75
2023/07/24 14:30:22;;;;;;;5.72;2.58;;;;;;;;;;5055618;28;20385;-76
2023/07/24 14:32:49;;;;;;;5.38;2.10;;;;;;;;;;5058632;28;20032;-75
2023/07/24 14:35:14;;;;;;;5.22;1.92;;;;;;;;;;5072554;28;20035;-76